sensor_id;sensor_type;location;lat;lon;timestamp;P1;durP1;ratioP1;P2;durP2;ratioP2
35990;SDS011;22064;42.672;23.282;2022-12-07T00:01:08;63.45;;;29.02;;
35990;SDS011;22064;42.672;23.282;2022-12-07T00:03:36;50.73;;;22.67;;
35990;SDS011;22064;42.672;23.282;2022-12-07T00:06:03;63.88;;;28.38;;
35990;SDS011;22064;42.672;23.282;2022-12-07T00:08:30;62.22;;;26.52;;
35990;SDS011;22064;42.672;23.282;2022-12-07T00:13:36;63.47;;;26.70;;
35990;SDS011;22064;42.672;23.282;2022-12-07T00:16:03;56.28;;;26.88;;
35990;SDS011;22064;42.672;23.282;2022-12-07T00:18:34;60.20;;;27.60;;
35990;SDS011;22064;42.672;23.282;2022-12-07T00:21:03;56.85;;;27.85;;
35990;SDS011;22064;42.672;23.282;2022-12-07T00:23:31;62.97;;;29.15;;
35990;SDS011;22064;42.672;23.282;2022-12-07T00:26:05;64.00;;;30.65;;
35990;SDS011;22064;42.672;23.282;2022-12-07T00:28:30;61.45;;;29.13;;
35990;SDS011;22064;42.672;23.282;2022-12-07T00:31:00;65.45;;;28.60;;
35990;SDS011;22064;42.672;23.282;2022-12-07T00:33:26;63.03;;;29.27;;
35990;SDS011;22064;42.672;23.282;2022-12-07T00:35:56;60.63;;;28.65;;
35990;SDS011;22064;42.672;23.282;2022-12-07T00:38:23;64.15;;;30.30;;
35990;SDS011;22064;42.672;23.282;2022-12-07T00:41:02;61.42;;;30.48;;
35990;SDS011;22064;42.672;23.282;2022-12-07T00:43:29;56.65;;;28.27;;
35990;SDS011;22064;42.672;23.282;2022-12-07T00:45:55;60.75;;;27.88;;
35990;SDS011;22064;42.672;23.282;2022-12-07T00:48:21;65.78;;;30.45;;
35990;SDS011;22064;42.672;23.282;2022-12-07T00:50:47;65.30;;;33.55;;
35990;SDS011;22064;42.672;23.282;2022-12-07T00:53:14;69.05;;;30.85;;
35990;SDS011;22064;42.672;23.282;2022-12-07T00:55:39;69.57;;;30.50;;
35990;SDS011;22064;42.672;23.282;2022-12-07T00:58:05;65.95;;;30.63;;
35990;SDS011;22064;42.672;23.282;2022-12-07T01:00:31;70.93;;;32.67;;
35990;SDS011;22064;42.672;23.282;2022-12-07T01:02:58;76.97;;;33.97;;
35990;SDS011;22064;42.672;23.282;2022-12-07T01:05:24;75.20;;;33.35;;
35990;SDS011;22064;42.672;23.282;2022-12-07T01:07:49;78.88;;;36.65;;
35990;SDS011;22064;42.672;23.282;2022-12-07T01:10:15;70.78;;;32.50;;
35990;SDS011;22064;42.672;23.282;2022-12-07T01:12:40;71.78;;;32.38;;
35990;SDS011;22064;42.672;23.282;2022-12-07T01:15:06;71.82;;;31.77;;
35990;SDS011;22064;42.672;23.282;2022-12-07T01:17:33;73.50;;;32.72;;
35990;SDS011;22064;42.672;23.282;2022-12-07T01:19:59;72.78;;;30.63;;
35990;SDS011;22064;42.672;23.282;2022-12-07T01:22:24;62.70;;;28.30;;
35990;SDS011;22064;42.672;23.282;2022-12-07T01:24:50;63.53;;;28.85;;
35990;SDS011;22064;42.672;23.282;2022-12-07T01:27:16;73.47;;;29.98;;
35990;SDS011;22064;42.672;23.282;2022-12-07T01:29:41;68.32;;;30.80;;
35990;SDS011;22064;42.672;23.282;2022-12-07T01:32:07;67.18;;;29.95;;
35990;SDS011;22064;42.672;23.282;2022-12-07T01:34:32;67.38;;;29.92;;
35990;SDS011;22064;42.672;23.282;2022-12-07T01:36:58;70.50;;;30.10;;
35990;SDS011;22064;42.672;23.282;2022-12-07T01:39:23;70.95;;;31.02;;
35990;SDS011;22064;42.672;23.282;2022-12-07T01:41:49;67.68;;;31.23;;
35990;SDS011;22064;42.672;23.282;2022-12-07T01:47:26;64.78;;;29.52;;
35990;SDS011;22064;42.672;23.282;2022-12-07T01:49:52;68.20;;;30.33;;
35990;SDS011;22064;42.672;23.282;2022-12-07T01:52:28;67.40;;;30.90;;
35990;SDS011;22064;42.672;23.282;2022-12-07T01:54:58;66.95;;;31.33;;
35990;SDS011;22064;42.672;23.282;2022-12-07T01:57:26;67.95;;;28.42;;
35990;SDS011;22064;42.672;23.282;2022-12-07T01:59:52;64.63;;;28.58;;
35990;SDS011;22064;42.672;23.282;2022-12-07T02:02:21;59.03;;;26.35;;
35990;SDS011;22064;42.672;23.282;2022-12-07T02:04:52;60.92;;;27.02;;
35990;SDS011;22064;42.672;23.282;2022-12-07T02:07:20;60.33;;;26.20;;
35990;SDS011;22064;42.672;23.282;2022-12-07T02:09:46;62.65;;;27.17;;
35990;SDS011;22064;42.672;23.282;2022-12-07T02:12:12;62.55;;;26.58;;
35990;SDS011;22064;42.672;23.282;2022-12-07T02:14:37;64.97;;;29.80;;
35990;SDS011;22064;42.672;23.282;2022-12-07T02:17:19;63.25;;;27.80;;
35990;SDS011;22064;42.672;23.282;2022-12-07T02:31:11;61.35;;;25.42;;
35990;SDS011;22064;42.672;23.282;2022-12-07T02:33:44;59.38;;;26.00;;
35990;SDS011;22064;42.672;23.282;2022-12-07T02:36:17;64.63;;;27.40;;
35990;SDS011;22064;42.672;23.282;2022-12-07T02:38:58;60.35;;;27.15;;
35990;SDS011;22064;42.672;23.282;2022-12-07T02:41:39;66.13;;;28.35;;
35990;SDS011;22064;42.672;23.282;2022-12-07T02:44:13;58.03;;;25.75;;
35990;SDS011;22064;42.672;23.282;2022-12-07T02:46:42;64.75;;;27.40;;
35990;SDS011;22064;42.672;23.282;2022-12-07T02:49:12;59.00;;;26.35;;
35990;SDS011;22064;42.672;23.282;2022-12-07T02:51:41;67.60;;;26.02;;
35990;SDS011;22064;42.672;23.282;2022-12-07T02:54:16;61.53;;;25.85;;
35990;SDS011;22064;42.672;23.282;2022-12-07T03:07:59;56.15;;;26.63;;
35990;SDS011;22064;42.672;23.282;2022-12-07T03:13:21;56.15;;;25.67;;
35990;SDS011;22064;42.672;23.282;2022-12-07T03:18:27;56.88;;;25.77;;
35990;SDS011;22064;42.672;23.282;2022-12-07T03:20:57;57.15;;;26.65;;
35990;SDS011;22064;42.672;23.282;2022-12-07T03:23:26;63.72;;;28.50;;
35990;SDS011;22064;42.672;23.282;2022-12-07T03:25:55;66.78;;;28.23;;
35990;SDS011;22064;42.672;23.282;2022-12-07T03:30:58;72.90;;;29.80;;
35990;SDS011;22064;42.672;23.282;2022-12-07T03:33:35;63.28;;;27.50;;
35990;SDS011;22064;42.672;23.282;2022-12-07T03:38:49;65.65;;;29.25;;
35990;SDS011;22064;42.672;23.282;2022-12-07T03:41:22;68.95;;;28.20;;
35990;SDS011;22064;42.672;23.282;2022-12-07T03:43:50;68.35;;;29.45;;
35990;SDS011;22064;42.672;23.282;2022-12-07T03:46:41;73.43;;;29.27;;
35990;SDS011;22064;42.672;23.282;2022-12-07T03:49:22;64.13;;;28.17;;
35990;SDS011;22064;42.672;23.282;2022-12-07T03:51:55;68.25;;;29.33;;
35990;SDS011;22064;42.672;23.282;2022-12-07T03:54:41;69.80;;;30.55;;
35990;SDS011;22064;42.672;23.282;2022-12-07T03:57:11;68.30;;;29.13;;
35990;SDS011;22064;42.672;23.282;2022-12-07T03:59:38;71.10;;;29.70;;
35990;SDS011;22064;42.672;23.282;2022-12-07T04:02:06;72.72;;;31.70;;
35990;SDS011;22064;42.672;23.282;2022-12-07T04:04:32;74.97;;;32.35;;
35990;SDS011;22064;42.672;23.282;2022-12-07T04:06:59;79.32;;;32.85;;
35990;SDS011;22064;42.672;23.282;2022-12-07T04:09:25;75.85;;;31.10;;
35990;SDS011;22064;42.672;23.282;2022-12-07T04:11:51;75.13;;;32.78;;
35990;SDS011;22064;42.672;23.282;2022-12-07T04:14:17;72.53;;;32.00;;
35990;SDS011;22064;42.672;23.282;2022-12-07T04:16:49;75.40;;;31.70;;
35990;SDS011;22064;42.672;23.282;2022-12-07T04:19:23;79.95;;;32.55;;
35990;SDS011;22064;42.672;23.282;2022-12-07T04:21:51;79.20;;;32.17;;
35990;SDS011;22064;42.672;23.282;2022-12-07T04:24:16;69.25;;;29.08;;
35990;SDS011;22064;42.672;23.282;2022-12-07T04:26:42;78.53;;;31.98;;
35990;SDS011;22064;42.672;23.282;2022-12-07T04:29:09;73.55;;;31.40;;
35990;SDS011;22064;42.672;23.282;2022-12-07T04:31:35;75.38;;;31.48;;
35990;SDS011;22064;42.672;23.282;2022-12-07T04:34:01;75.32;;;32.85;;
35990;SDS011;22064;42.672;23.282;2022-12-07T04:36:28;78.85;;;32.83;;
35990;SDS011;22064;42.672;23.282;2022-12-07T04:38:54;75.22;;;32.00;;
35990;SDS011;22064;42.672;23.282;2022-12-07T04:41:20;79.22;;;33.17;;
35990;SDS011;22064;42.672;23.282;2022-12-07T04:43:54;70.97;;;32.38;;
35990;SDS011;22064;42.672;23.282;2022-12-07T04:46:24;72.45;;;33.25;;
35990;SDS011;22064;42.672;23.282;2022-12-07T04:48:50;76.28;;;32.05;;
35990;SDS011;22064;42.672;23.282;2022-12-07T04:51:18;74.50;;;32.17;;
35990;SDS011;22064;42.672;23.282;2022-12-07T04:53:46;68.63;;;30.38;;
35990;SDS011;22064;42.672;23.282;2022-12-07T04:56:12;80.63;;;33.55;;
35990;SDS011;22064;42.672;23.282;2022-12-07T04:58:38;81.20;;;34.42;;
35990;SDS011;22064;42.672;23.282;2022-12-07T05:01:03;72.13;;;31.25;;
35990;SDS011;22064;42.672;23.282;2022-12-07T05:03:29;75.07;;;29.92;;
35990;SDS011;22064;42.672;23.282;2022-12-07T05:05:54;73.63;;;30.23;;
35990;SDS011;22064;42.672;23.282;2022-12-07T05:08:20;71.93;;;30.40;;
35990;SDS011;22064;42.672;23.282;2022-12-07T05:10:45;74.10;;;30.40;;
35990;SDS011;22064;42.672;23.282;2022-12-07T05:13:13;72.90;;;29.92;;
35990;SDS011;22064;42.672;23.282;2022-12-07T05:15:38;77.10;;;31.20;;
35990;SDS011;22064;42.672;23.282;2022-12-07T05:18:04;77.07;;;32.38;;
35990;SDS011;22064;42.672;23.282;2022-12-07T05:20:29;69.25;;;29.00;;
35990;SDS011;22064;42.672;23.282;2022-12-07T05:22:55;70.35;;;28.83;;
35990;SDS011;22064;42.672;23.282;2022-12-07T05:25:21;73.95;;;29.27;;
35990;SDS011;22064;42.672;23.282;2022-12-07T05:27:46;72.35;;;30.17;;
35990;SDS011;22064;42.672;23.282;2022-12-07T05:30:12;77.35;;;31.88;;
35990;SDS011;22064;42.672;23.282;2022-12-07T05:32:38;72.80;;;30.02;;
35990;SDS011;22064;42.672;23.282;2022-12-07T05:35:03;70.95;;;29.52;;
35990;SDS011;22064;42.672;23.282;2022-12-07T05:37:29;67.80;;;29.05;;
35990;SDS011;22064;42.672;23.282;2022-12-07T05:39:55;67.00;;;28.10;;
35990;SDS011;22064;42.672;23.282;2022-12-07T05:42:20;64.43;;;27.48;;
35990;SDS011;22064;42.672;23.282;2022-12-07T05:44:46;71.57;;;29.65;;
35990;SDS011;22064;42.672;23.282;2022-12-07T05:47:12;65.15;;;26.38;;
35990;SDS011;22064;42.672;23.282;2022-12-07T05:49:39;65.85;;;27.92;;
35990;SDS011;22064;42.672;23.282;2022-12-07T05:52:05;72.63;;;30.75;;
35990;SDS011;22064;42.672;23.282;2022-12-07T05:54:31;71.50;;;28.52;;
35990;SDS011;22064;42.672;23.282;2022-12-07T05:56:56;69.10;;;30.23;;
35990;SDS011;22064;42.672;23.282;2022-12-07T05:59:22;67.47;;;29.55;;
35990;SDS011;22064;42.672;23.282;2022-12-07T06:01:48;70.97;;;28.98;;
35990;SDS011;22064;42.672;23.282;2022-12-07T06:04:17;66.47;;;28.60;;
35990;SDS011;22064;42.672;23.282;2022-12-07T06:06:43;67.75;;;29.20;;
35990;SDS011;22064;42.672;23.282;2022-12-07T06:09:09;74.25;;;29.50;;
35990;SDS011;22064;42.672;23.282;2022-12-07T06:11:34;69.55;;;30.17;;
35990;SDS011;22064;42.672;23.282;2022-12-07T06:14:18;72.30;;;29.85;;
35990;SDS011;22064;42.672;23.282;2022-12-07T06:16:44;66.00;;;30.38;;
35990;SDS011;22064;42.672;23.282;2022-12-07T06:19:10;73.70;;;31.33;;
35990;SDS011;22064;42.672;23.282;2022-12-07T06:21:36;74.18;;;30.52;;
35990;SDS011;22064;42.672;23.282;2022-12-07T06:24:01;81.47;;;36.13;;
35990;SDS011;22064;42.672;23.282;2022-12-07T06:26:27;83.78;;;35.80;;
35990;SDS011;22064;42.672;23.282;2022-12-07T06:28:52;79.78;;;34.97;;
35990;SDS011;22064;42.672;23.282;2022-12-07T06:31:18;83.13;;;35.42;;
35990;SDS011;22064;42.672;23.282;2022-12-07T06:33:44;73.95;;;35.08;;
35990;SDS011;22064;42.672;23.282;2022-12-07T06:36:09;71.55;;;31.20;;
35990;SDS011;22064;42.672;23.282;2022-12-07T06:38:35;81.45;;;30.50;;
35990;SDS011;22064;42.672;23.282;2022-12-07T06:41:01;69.18;;;30.67;;
35990;SDS011;22064;42.672;23.282;2022-12-07T06:43:27;72.60;;;31.85;;
35990;SDS011;22064;42.672;23.282;2022-12-07T06:45:53;78.05;;;35.10;;
35990;SDS011;22064;42.672;23.282;2022-12-07T06:48:19;73.72;;;33.30;;
35990;SDS011;22064;42.672;23.282;2022-12-07T06:50:45;83.05;;;35.92;;
35990;SDS011;22064;42.672;23.282;2022-12-07T06:53:11;78.82;;;34.65;;
35990;SDS011;22064;42.672;23.282;2022-12-07T06:55:36;79.75;;;35.53;;
35990;SDS011;22064;42.672;23.282;2022-12-07T06:58:02;83.38;;;36.58;;
35990;SDS011;22064;42.672;23.282;2022-12-07T07:00:28;85.30;;;37.90;;
35990;SDS011;22064;42.672;23.282;2022-12-07T07:02:54;84.65;;;36.88;;
35990;SDS011;22064;42.672;23.282;2022-12-07T07:05:19;79.88;;;37.45;;
35990;SDS011;22064;42.672;23.282;2022-12-07T07:07:47;86.65;;;39.15;;
35990;SDS011;22064;42.672;23.282;2022-12-07T07:10:16;83.85;;;39.28;;
35990;SDS011;22064;42.672;23.282;2022-12-07T07:12:41;85.05;;;38.75;;
35990;SDS011;22064;42.672;23.282;2022-12-07T07:15:07;81.57;;;36.70;;
35990;SDS011;22064;42.672;23.282;2022-12-07T07:17:33;89.82;;;36.90;;
35990;SDS011;22064;42.672;23.282;2022-12-07T07:19:58;94.63;;;42.35;;
35990;SDS011;22064;42.672;23.282;2022-12-07T07:22:24;98.45;;;48.38;;
35990;SDS011;22064;42.672;23.282;2022-12-07T07:24:49;97.95;;;44.05;;
35990;SDS011;22064;42.672;23.282;2022-12-07T07:27:15;98.75;;;45.53;;
35990;SDS011;22064;42.672;23.282;2022-12-07T07:29:40;103.90;;;52.83;;
35990;SDS011;22064;42.672;23.282;2022-12-07T07:32:06;111.20;;;55.88;;
35990;SDS011;22064;42.672;23.282;2022-12-07T07:34:32;111.07;;;55.15;;
35990;SDS011;22064;42.672;23.282;2022-12-07T07:36:58;113.25;;;55.60;;
35990;SDS011;22064;42.672;23.282;2022-12-07T07:39:24;106.55;;;53.08;;
35990;SDS011;22064;42.672;23.282;2022-12-07T07:41:49;110.72;;;53.63;;
35990;SDS011;22064;42.672;23.282;2022-12-07T07:44:23;103.88;;;49.38;;
35990;SDS011;22064;42.672;23.282;2022-12-07T07:46:49;90.00;;;44.90;;
35990;SDS011;22064;42.672;23.282;2022-12-07T07:49:14;87.82;;;42.58;;
35990;SDS011;22064;42.672;23.282;2022-12-07T07:51:40;88.03;;;40.42;;
35990;SDS011;22064;42.672;23.282;2022-12-07T07:54:05;90.85;;;39.53;;
35990;SDS011;22064;42.672;23.282;2022-12-07T07:56:31;82.80;;;38.25;;
35990;SDS011;22064;42.672;23.282;2022-12-07T07:58:56;82.55;;;38.17;;
35990;SDS011;22064;42.672;23.282;2022-12-07T08:01:22;87.32;;;40.53;;
35990;SDS011;22064;42.672;23.282;2022-12-07T08:03:47;85.72;;;39.60;;
35990;SDS011;22064;42.672;23.282;2022-12-07T08:06:13;81.97;;;36.67;;
35990;SDS011;22064;42.672;23.282;2022-12-07T08:08:39;79.72;;;35.63;;
35990;SDS011;22064;42.672;23.282;2022-12-07T08:11:05;83.65;;;36.10;;
35990;SDS011;22064;42.672;23.282;2022-12-07T08:13:31;82.38;;;34.50;;
35990;SDS011;22064;42.672;23.282;2022-12-07T08:15:56;75.90;;;35.75;;
35990;SDS011;22064;42.672;23.282;2022-12-07T08:18:22;77.97;;;36.63;;
35990;SDS011;22064;42.672;23.282;2022-12-07T08:20:47;75.03;;;32.95;;
35990;SDS011;22064;42.672;23.282;2022-12-07T08:23:13;70.93;;;32.05;;
35990;SDS011;22064;42.672;23.282;2022-12-07T08:25:39;72.03;;;32.97;;
35990;SDS011;22064;42.672;23.282;2022-12-07T08:28:04;73.93;;;33.45;;
35990;SDS011;22064;42.672;23.282;2022-12-07T08:30:30;74.25;;;32.95;;
35990;SDS011;22064;42.672;23.282;2022-12-07T08:32:56;80.28;;;36.13;;
35990;SDS011;22064;42.672;23.282;2022-12-07T08:35:22;69.97;;;34.03;;
35990;SDS011;22064;42.672;23.282;2022-12-07T08:37:48;72.25;;;35.35;;
35990;SDS011;22064;42.672;23.282;2022-12-07T08:40:14;72.07;;;33.50;;
35990;SDS011;22064;42.672;23.282;2022-12-07T08:42:43;72.13;;;34.33;;
35990;SDS011;22064;42.672;23.282;2022-12-07T08:45:14;80.32;;;36.22;;
35990;SDS011;22064;42.672;23.282;2022-12-07T08:47:41;75.07;;;34.35;;
35990;SDS011;22064;42.672;23.282;2022-12-07T08:50:15;75.47;;;35.58;;
35990;SDS011;22064;42.672;23.282;2022-12-07T08:52:42;73.93;;;35.40;;
35990;SDS011;22064;42.672;23.282;2022-12-07T08:55:11;72.25;;;34.53;;
35990;SDS011;22064;42.672;23.282;2022-12-07T08:57:37;74.50;;;36.92;;
35990;SDS011;22064;42.672;23.282;2022-12-07T09:00:04;74.40;;;34.30;;
35990;SDS011;22064;42.672;23.282;2022-12-07T09:02:31;67.97;;;33.47;;
35990;SDS011;22064;42.672;23.282;2022-12-07T09:04:57;78.03;;;35.75;;
35990;SDS011;22064;42.672;23.282;2022-12-07T09:07:22;71.07;;;34.13;;
35990;SDS011;22064;42.672;23.282;2022-12-07T09:09:49;81.50;;;35.05;;
35990;SDS011;22064;42.672;23.282;2022-12-07T09:12:14;70.00;;;33.53;;
35990;SDS011;22064;42.672;23.282;2022-12-07T09:14:40;70.88;;;32.45;;
35990;SDS011;22064;42.672;23.282;2022-12-07T09:17:09;68.10;;;31.58;;
35990;SDS011;22064;42.672;23.282;2022-12-07T09:19:36;73.25;;;32.97;;
35990;SDS011;22064;42.672;23.282;2022-12-07T09:22:02;67.35;;;31.83;;
35990;SDS011;22064;42.672;23.282;2022-12-07T09:24:30;59.15;;;29.85;;
35990;SDS011;22064;42.672;23.282;2022-12-07T09:26:56;60.67;;;29.35;;
35990;SDS011;22064;42.672;23.282;2022-12-07T09:29:22;68.05;;;31.70;;
35990;SDS011;22064;42.672;23.282;2022-12-07T09:31:48;62.60;;;30.75;;
35990;SDS011;22064;42.672;23.282;2022-12-07T09:34:14;65.25;;;30.13;;
35990;SDS011;22064;42.672;23.282;2022-12-07T09:36:39;64.22;;;30.60;;
35990;SDS011;22064;42.672;23.282;2022-12-07T09:39:05;65.05;;;30.55;;
35990;SDS011;22064;42.672;23.282;2022-12-07T09:41:31;69.40;;;32.47;;
35990;SDS011;22064;42.672;23.282;2022-12-07T09:44:04;60.05;;;27.52;;
35990;SDS011;22064;42.672;23.282;2022-12-07T09:46:36;56.90;;;26.73;;
35990;SDS011;22064;42.672;23.282;2022-12-07T09:49:04;58.45;;;28.27;;
35990;SDS011;22064;42.672;23.282;2022-12-07T09:51:30;59.42;;;28.58;;
35990;SDS011;22064;42.672;23.282;2022-12-07T09:53:56;55.55;;;27.73;;
35990;SDS011;22064;42.672;23.282;2022-12-07T09:56:24;56.85;;;26.83;;
35990;SDS011;22064;42.672;23.282;2022-12-07T09:58:51;53.05;;;25.67;;
35990;SDS011;22064;42.672;23.282;2022-12-07T10:01:27;54.60;;;25.85;;
35990;SDS011;22064;42.672;23.282;2022-12-07T10:04:40;52.88;;;25.63;;
35990;SDS011;22064;42.672;23.282;2022-12-07T10:06:43;57.33;;;28.23;;
35990;SDS011;22064;42.672;23.282;2022-12-07T10:09:17;56.15;;;26.08;;
35990;SDS011;22064;42.672;23.282;2022-12-07T10:12:03;51.83;;;25.08;;
35990;SDS011;22064;42.672;23.282;2022-12-07T10:14:31;50.13;;;26.02;;
35990;SDS011;22064;42.672;23.282;2022-12-07T10:16:58;53.13;;;26.00;;
35990;SDS011;22064;42.672;23.282;2022-12-07T10:19:34;56.38;;;25.02;;
35990;SDS011;22064;42.672;23.282;2022-12-07T10:24:36;48.53;;;24.63;;
35990;SDS011;22064;42.672;23.282;2022-12-07T10:27:10;51.08;;;25.55;;
35990;SDS011;22064;42.672;23.282;2022-12-07T10:29:47;54.25;;;25.38;;
35990;SDS011;22064;42.672;23.282;2022-12-07T10:34:41;52.67;;;25.88;;
35990;SDS011;22064;42.672;23.282;2022-12-07T10:37:15;54.15;;;24.98;;
35990;SDS011;22064;42.672;23.282;2022-12-07T10:39:54;55.03;;;24.80;;
35990;SDS011;22064;42.672;23.282;2022-12-07T10:42:22;49.60;;;24.38;;
35990;SDS011;22064;42.672;23.282;2022-12-07T10:58:31;53.33;;;25.05;;
35990;SDS011;22064;42.672;23.282;2022-12-07T11:32:03;42.17;;;19.92;;
35990;SDS011;22064;42.672;23.282;2022-12-07T11:34:39;42.50;;;20.00;;
35990;SDS011;22064;42.672;23.282;2022-12-07T11:37:17;43.88;;;20.38;;
35990;SDS011;22064;42.672;23.282;2022-12-07T11:39:54;37.15;;;19.48;;
35990;SDS011;22064;42.672;23.282;2022-12-07T11:42:39;37.67;;;18.02;;
35990;SDS011;22064;42.672;23.282;2022-12-07T11:45:49;39.35;;;18.45;;
35990;SDS011;22064;42.672;23.282;2022-12-07T11:48:14;44.17;;;20.08;;
35990;SDS011;22064;42.672;23.282;2022-12-07T11:50:52;47.00;;;20.88;;
35990;SDS011;22064;42.672;23.282;2022-12-07T11:54:05;39.20;;;18.88;;
35990;SDS011;22064;42.672;23.282;2022-12-07T12:03:44;37.40;;;19.15;;
35990;SDS011;22064;42.672;23.282;2022-12-07T12:06:12;40.63;;;18.60;;
35990;SDS011;22064;42.672;23.282;2022-12-07T12:08:39;43.88;;;19.30;;
35990;SDS011;22064;42.672;23.282;2022-12-07T12:22:38;42.20;;;19.02;;
35990;SDS011;22064;42.672;23.282;2022-12-07T12:25:07;39.92;;;19.98;;
35990;SDS011;22064;42.672;23.282;2022-12-07T12:30:29;32.40;;;15.32;;
35990;SDS011;22064;42.672;23.282;2022-12-07T12:33:01;33.65;;;15.75;;
35990;SDS011;22064;42.672;23.282;2022-12-07T12:40:50;38.33;;;16.25;;
35990;SDS011;22064;42.672;23.282;2022-12-07T13:01:46;32.13;;;16.48;;
35990;SDS011;22064;42.672;23.282;2022-12-07T13:06:47;35.50;;;17.70;;
35990;SDS011;22064;42.672;23.282;2022-12-07T13:12:13;36.90;;;16.67;;
35990;SDS011;22064;42.672;23.282;2022-12-07T13:14:42;33.13;;;16.00;;
35990;SDS011;22064;42.672;23.282;2022-12-07T13:19:59;35.85;;;16.08;;
35990;SDS011;22064;42.672;23.282;2022-12-07T13:25:03;36.25;;;17.92;;
35990;SDS011;22064;42.672;23.282;2022-12-07T13:27:47;35.83;;;17.30;;
35990;SDS011;22064;42.672;23.282;2022-12-07T13:30:21;40.35;;;17.20;;
35990;SDS011;22064;42.672;23.282;2022-12-07T13:32:54;35.67;;;17.10;;
35990;SDS011;22064;42.672;23.282;2022-12-07T13:35:31;36.25;;;17.77;;
35990;SDS011;22064;42.672;23.282;2022-12-07T13:38:04;43.03;;;17.98;;
35990;SDS011;22064;42.672;23.282;2022-12-07T13:43:53;34.80;;;16.67;;
35990;SDS011;22064;42.672;23.282;2022-12-07T13:47:21;32.83;;;14.90;;
35990;SDS011;22064;42.672;23.282;2022-12-07T13:49:24;36.30;;;14.50;;
35990;SDS011;22064;42.672;23.282;2022-12-07T13:51:51;33.20;;;15.20;;
35990;SDS011;22064;42.672;23.282;2022-12-07T13:54:18;28.33;;;13.45;;
35990;SDS011;22064;42.672;23.282;2022-12-07T13:56:47;33.78;;;14.02;;
35990;SDS011;22064;42.672;23.282;2022-12-07T14:01:49;32.58;;;14.20;;
35990;SDS011;22064;42.672;23.282;2022-12-07T14:04:35;29.25;;;14.50;;
35990;SDS011;22064;42.672;23.282;2022-12-07T14:09:54;27.70;;;13.60;;
35990;SDS011;22064;42.672;23.282;2022-12-07T14:12:25;28.85;;;12.82;;
35990;SDS011;22064;42.672;23.282;2022-12-07T14:14:52;28.80;;;12.45;;
35990;SDS011;22064;42.672;23.282;2022-12-07T14:17:20;26.80;;;12.95;;
35990;SDS011;22064;42.672;23.282;2022-12-07T14:19:57;27.52;;;12.48;;
35990;SDS011;22064;42.672;23.282;2022-12-07T14:22:35;27.58;;;11.75;;
35990;SDS011;22064;42.672;23.282;2022-12-07T14:27:31;28.83;;;12.40;;
35990;SDS011;22064;42.672;23.282;2022-12-07T14:30:02;33.28;;;14.65;;
35990;SDS011;22064;42.672;23.282;2022-12-07T14:32:29;33.47;;;13.75;;
35990;SDS011;22064;42.672;23.282;2022-12-07T14:35:07;47.05;;;22.27;;
35990;SDS011;22064;42.672;23.282;2022-12-07T14:37:39;38.40;;;17.50;;
35990;SDS011;22064;42.672;23.282;2022-12-07T14:40:05;41.92;;;18.13;;
35990;SDS011;22064;42.672;23.282;2022-12-07T14:42:32;33.22;;;15.80;;
35990;SDS011;22064;42.672;23.282;2022-12-07T14:44:59;36.20;;;16.35;;
35990;SDS011;22064;42.672;23.282;2022-12-07T14:47:25;32.95;;;14.55;;
35990;SDS011;22064;42.672;23.282;2022-12-07T14:49:52;34.45;;;15.35;;
35990;SDS011;22064;42.672;23.282;2022-12-07T14:52:22;32.88;;;15.27;;
35990;SDS011;22064;42.672;23.282;2022-12-07T14:54:49;36.13;;;14.75;;
35990;SDS011;22064;42.672;23.282;2022-12-07T14:57:15;39.08;;;15.95;;
35990;SDS011;22064;42.672;23.282;2022-12-07T14:59:40;38.83;;;17.15;;
35990;SDS011;22064;42.672;23.282;2022-12-07T15:02:06;30.15;;;14.23;;
35990;SDS011;22064;42.672;23.282;2022-12-07T15:04:36;30.05;;;13.70;;
35990;SDS011;22064;42.672;23.282;2022-12-07T15:07:03;39.50;;;14.18;;
35990;SDS011;22064;42.672;23.282;2022-12-07T15:09:30;36.10;;;15.38;;
35990;SDS011;22064;42.672;23.282;2022-12-07T15:11:56;53.92;;;16.48;;
35990;SDS011;22064;42.672;23.282;2022-12-07T15:14:22;34.50;;;14.15;;
35990;SDS011;22064;42.672;23.282;2022-12-07T15:16:47;34.13;;;14.95;;
35990;SDS011;22064;42.672;23.282;2022-12-07T15:19:14;36.75;;;16.10;;
35990;SDS011;22064;42.672;23.282;2022-12-07T15:21:44;38.45;;;15.23;;
35990;SDS011;22064;42.672;23.282;2022-12-07T15:24:11;36.17;;;15.73;;
35990;SDS011;22064;42.672;23.282;2022-12-07T15:26:37;32.80;;;15.02;;
35990;SDS011;22064;42.672;23.282;2022-12-07T15:29:03;36.88;;;17.23;;
35990;SDS011;22064;42.672;23.282;2022-12-07T15:31:29;56.50;;;23.50;;
35990;SDS011;22064;42.672;23.282;2022-12-07T15:33:55;54.92;;;24.40;;
35990;SDS011;22064;42.672;23.282;2022-12-07T15:36:22;52.42;;;23.52;;
35990;SDS011;22064;42.672;23.282;2022-12-07T15:38:50;52.65;;;24.08;;
35990;SDS011;22064;42.672;23.282;2022-12-07T15:41:16;55.70;;;24.27;;
35990;SDS011;22064;42.672;23.282;2022-12-07T15:43:42;52.38;;;25.25;;
35990;SDS011;22064;42.672;23.282;2022-12-07T15:46:44;58.05;;;24.67;;
35990;SDS011;22064;42.672;23.282;2022-12-07T15:49:11;52.55;;;24.13;;
35990;SDS011;22064;42.672;23.282;2022-12-07T15:51:39;50.65;;;22.55;;
35990;SDS011;22064;42.672;23.282;2022-12-07T15:54:05;50.63;;;22.88;;
35990;SDS011;22064;42.672;23.282;2022-12-07T15:56:30;52.78;;;22.40;;
35990;SDS011;22064;42.672;23.282;2022-12-07T15:58:56;58.50;;;24.60;;
35990;SDS011;22064;42.672;23.282;2022-12-07T16:01:22;49.13;;;22.60;;
35990;SDS011;22064;42.672;23.282;2022-12-07T16:03:47;53.28;;;24.15;;
35990;SDS011;22064;42.672;23.282;2022-12-07T16:06:17;55.92;;;26.00;;
35990;SDS011;22064;42.672;23.282;2022-12-07T16:11:09;55.60;;;24.10;;
35990;SDS011;22064;42.672;23.282;2022-12-07T16:13:35;58.10;;;25.35;;
35990;SDS011;22064;42.672;23.282;2022-12-07T16:16:04;59.53;;;24.23;;
35990;SDS011;22064;42.672;23.282;2022-12-07T16:18:32;60.35;;;26.20;;
35990;SDS011;22064;42.672;23.282;2022-12-07T16:20:58;55.28;;;26.63;;
35990;SDS011;22064;42.672;23.282;2022-12-07T16:23:23;57.25;;;25.77;;
35990;SDS011;22064;42.672;23.282;2022-12-07T16:25:49;60.10;;;27.95;;
35990;SDS011;22064;42.672;23.282;2022-12-07T16:28:15;77.07;;;36.58;;
35990;SDS011;22064;42.672;23.282;2022-12-07T16:30:40;73.43;;;32.90;;
35990;SDS011;22064;42.672;23.282;2022-12-07T16:33:06;60.88;;;29.77;;
35990;SDS011;22064;42.672;23.282;2022-12-07T16:35:31;57.78;;;29.70;;
35990;SDS011;22064;42.672;23.282;2022-12-07T16:37:57;69.38;;;31.15;;
35990;SDS011;22064;42.672;23.282;2022-12-07T16:40:23;67.55;;;31.90;;
35990;SDS011;22064;42.672;23.282;2022-12-07T16:42:48;59.72;;;29.48;;
35990;SDS011;22064;42.672;23.282;2022-12-07T16:45:14;71.53;;;29.60;;
35990;SDS011;22064;42.672;23.282;2022-12-07T16:47:40;61.33;;;31.55;;
35990;SDS011;22064;42.672;23.282;2022-12-07T16:50:06;71.80;;;33.83;;
35990;SDS011;22064;42.672;23.282;2022-12-07T16:52:33;66.75;;;30.48;;
35990;SDS011;22064;42.672;23.282;2022-12-07T16:54:58;62.42;;;29.00;;